createdAt,value
2023-04-02T00:00:03.680Z,995.12
2023-04-02T00:00:35.133Z,995.12
2023-04-02T00:01:05.779Z,995.12
2023-04-02T00:01:35.754Z,995.12
2023-04-02T00:01:55.464Z,995.12
2023-04-02T00:02:26.839Z,995.12
2023-04-02T00:02:43.096Z,995.12
2023-04-02T00:03:14.012Z,995.12
2023-04-02T00:03:35.861Z,995.22
2023-04-02T00:04:02.573Z,995.22
2023-04-02T00:04:33.894Z,995.22
2023-04-02T00:05:06.945Z,995.22
2023-04-02T00:05:35.499Z,995.33
2023-04-02T00:05:53.894Z,995.33
2023-04-02T00:06:26.714Z,995.33
2023-04-02T00:06:43.170Z,995.12
2023-04-02T00:07:14.693Z,995.12
2023-04-02T00:07:35.318Z,995.33
2023-04-02T00:08:01.751Z,995.33
2023-04-02T00:08:36.630Z,995.33
2023-04-02T00:09:05.800Z,995.33
2023-04-02T00:09:35.272Z,995.33
2023-04-02T00:09:53.722Z,995.33
2023-04-02T00:10:25.911Z,995.33
2023-04-02T00:10:42.902Z,995.43
2023-04-02T00:11:14.769Z,995.43
2023-04-02T00:11:35.289Z,995.33
2023-04-02T00:12:01.726Z,995.33
2023-04-02T00:12:35.630Z,995.33
2023-04-02T00:13:05.846Z,995.43
2023-04-02T00:13:36.419Z,995.53
2023-04-02T00:13:53.747Z,995.53
2023-04-02T00:14:25.776Z,995.53
2023-04-02T00:14:43.837Z,995.43
2023-04-02T00:15:14.075Z,995.43
2023-04-02T00:15:35.593Z,995.12
2023-04-02T00:16:02.856Z,995.12
2023-04-02T00:16:34.018Z,995.12
2023-04-02T00:17:06.604Z,995.22
2023-04-02T00:17:35.264Z,995.43
2023-04-02T00:17:53.825Z,995.43
2023-04-02T00:18:28.603Z,995.43
2023-04-02T00:18:57.739Z,995.33
2023-04-02T00:19:31.502Z,995.33
2023-04-02T00:20:02.004Z,995.53
2023-04-02T00:20:34.736Z,995.53
2023-04-02T00:21:05.795Z,995.33
2023-04-02T00:21:36.363Z,995.43
2023-04-02T00:21:54.722Z,995.43
2023-04-02T00:22:25.754Z,995.43
2023-04-02T00:22:42.843Z,995.33
2023-04-02T00:23:14.649Z,995.33
2023-04-02T00:23:35.443Z,995.53
2023-04-02T00:24:01.742Z,995.53
2023-04-02T00:24:33.837Z,995.53
2023-04-02T00:25:05.901Z,995.53
2023-04-02T00:25:35.989Z,995.53
2023-04-02T00:25:53.887Z,995.53
2023-04-02T00:26:26.813Z,995.53
2023-04-02T00:26:43.321Z,995.63
2023-04-02T00:27:13.794Z,995.63
2023-04-02T00:27:36.130Z,995.43
2023-04-02T00:28:01.782Z,995.43
2023-04-02T00:28:33.807Z,995.43
2023-04-02T00:29:05.795Z,995.63
2023-04-02T00:29:35.359Z,995.63
2023-04-02T00:29:53.748Z,995.63
2023-04-02T00:30:26.914Z,995.63
2023-04-02T00:30:43.128Z,995.53
2023-04-02T00:31:13.758Z,995.53
2023-04-02T00:31:35.432Z,995.73
2023-04-02T00:32:03.652Z,995.73
2023-04-02T00:32:33.963Z,995.73
2023-04-02T00:33:05.838Z,995.73
2023-04-02T00:33:35.384Z,995.73
2023-04-02T00:33:53.805Z,995.73
2023-04-02T00:34:26.647Z,995.73
2023-04-02T00:34:43.047Z,995.83
2023-04-02T00:35:14.239Z,995.83
2023-04-02T00:35:35.588Z,995.63
2023-04-02T00:36:02.887Z,995.63
2023-04-02T00:36:33.851Z,995.63
2023-04-02T00:37:06.942Z,995.94
2023-04-02T00:37:35.427Z,995.94
2023-04-02T00:37:54.763Z,995.94
2023-04-02T00:38:25.860Z,995.94
2023-04-02T00:38:42.877Z,995.83
2023-04-02T00:39:14.865Z,995.83
2023-04-02T00:39:35.378Z,995.83
2023-04-02T00:40:02.030Z,995.83
2023-04-02T00:40:33.895Z,995.83
2023-04-02T00:41:05.872Z,996.04
2023-04-02T00:41:35.388Z,995.63
2023-04-02T00:41:53.792Z,995.63
2023-04-02T00:42:26.692Z,995.63
2023-04-02T00:42:45.020Z,995.83
2023-04-02T00:43:14.723Z,995.83
2023-04-02T00:43:35.263Z,995.83
2023-04-02T00:44:02.074Z,995.83
2023-04-02T00:44:33.897Z,995.83
2023-04-02T00:45:06.033Z,996.04
2023-04-02T00:45:35.879Z,995.63
2023-04-02T00:45:55.017Z,995.63
2023-04-02T00:46:26.317Z,995.63
2023-04-02T00:46:43.632Z,995.73
2023-04-02T00:47:13.841Z,995.73
2023-04-02T00:47:36.204Z,995.83
2023-04-02T00:48:03.756Z,995.83
2023-04-02T00:48:33.828Z,995.83
2023-04-02T00:49:05.790Z,995.73
2023-04-02T00:49:35.278Z,996.04
2023-04-02T00:49:53.828Z,996.04
2023-04-02T00:50:27.063Z,996.04
2023-04-02T00:50:43.561Z,995.73
2023-04-02T00:51:13.873Z,995.73
2023-04-02T00:51:36.029Z,995.94
2023-04-02T00:52:03.143Z,995.94
2023-04-02T00:52:34.248Z,995.94
2023-04-02T00:53:08.356Z,995.94
2023-04-02T00:53:36.799Z,995.94
2023-04-02T00:54:11.532Z,995.94
2023-04-02T00:54:35.321Z,995.83
2023-04-02T00:54:57.743Z,995.83
2023-04-02T00:55:30.806Z,995.83
2023-04-02T00:56:01.839Z,996.04
2023-04-02T00:56:33.893Z,996.04
2023-04-02T00:57:05.885Z,996.14
2023-04-02T00:57:35.334Z,995.94
2023-04-02T00:57:53.734Z,995.94
2023-04-02T00:58:27.521Z,995.94
2023-04-02T00:58:58.036Z,996.04
2023-04-02T00:59:31.439Z,996.04
2023-04-02T01:00:03.215Z,995.73
2023-04-02T01:00:35.689Z,995.73
2023-04-02T01:01:05.789Z,995.94
2023-04-02T01:01:35.912Z,996.04
2023-04-02T01:01:54.520Z,996.04
2023-04-02T01:02:26.118Z,996.04
2023-04-02T01:02:43.403Z,996.04
2023-04-02T01:03:30.059Z,996.04
2023-04-02T01:04:03.602Z,996.04
2023-04-02T01:04:34.124Z,996.04
2023-04-02T01:05:05.911Z,996.14
2023-04-02T01:05:37.523Z,996.14
2023-04-02T01:05:54.064Z,996.14
2023-04-02T01:06:26.580Z,996.14
2023-04-02T01:06:58.825Z,996.04
2023-04-02T01:07:31.660Z,996.04
2023-04-02T01:08:01.824Z,996.24
2023-04-02T01:08:35.315Z,996.24
2023-04-02T01:09:05.835Z,996.04
2023-04-02T01:09:35.446Z,996.04
2023-04-02T01:09:54.685Z,996.04
2023-04-02T01:10:25.959Z,996.04
2023-04-02T01:10:43.035Z,996.04
2023-04-02T01:11:13.914Z,996.04
2023-04-02T01:11:35.315Z,996.31
2023-04-02T01:12:03.252Z,996.31
2023-04-02T01:12:33.989Z,996.31
2023-04-02T01:13:06.705Z,996.31
2023-04-02T01:13:35.614Z,996.41
2023-04-02T01:13:53.799Z,996.41
2023-04-02T01:14:26.715Z,996.41
2023-04-02T01:14:43.205Z,996.41
2023-04-02T01:15:14.410Z,996.41
2023-04-02T01:15:35.513Z,996.14
2023-04-02T01:16:01.930Z,996.14
2023-04-02T01:16:34.710Z,996.14
2023-04-02T01:17:06.584Z,996.04
2023-04-02T01:17:35.345Z,996.24
2023-04-02T01:17:54.696Z,996.24
2023-04-02T01:18:25.695Z,996.24
2023-04-02T01:18:42.969Z,996.41
2023-04-02T01:19:13.848Z,996.41
2023-04-02T01:19:35.365Z,996.41
2023-04-02T01:20:04.066Z,996.41
2023-04-02T01:20:33.856Z,996.41
2023-04-02T01:21:06.467Z,996.31
2023-04-02T01:21:35.269Z,996.51
2023-04-02T01:21:53.855Z,996.51
2023-04-02T01:22:25.795Z,996.51
2023-04-02T01:22:43.122Z,996.24
2023-04-02T01:23:15.866Z,996.24
2023-04-02T01:23:35.297Z,996.41
2023-04-02T01:24:01.882Z,996.41
2023-04-02T01:24:33.818Z,996.41
2023-04-02T01:25:06.058Z,996.41
2023-04-02T01:25:35.960Z,996.31
2023-04-02T01:25:53.938Z,996.31
2023-04-02T01:26:27.275Z,996.31
2023-04-02T01:26:57.696Z,996.51
2023-04-02T01:27:30.599Z,996.51
2023-04-02T01:28:01.873Z,996.61
2023-04-02T01:28:35.689Z,996.51
2023-04-02T01:29:05.764Z,996.51
2023-04-02T01:29:35.304Z,996.31
2023-04-02T01:29:54.644Z,996.31
2023-04-02T01:30:25.966Z,996.31
2023-04-02T01:30:42.976Z,996.31
2023-04-02T01:31:13.798Z,996.31
2023-04-02T01:31:36.193Z,996.51
2023-04-02T01:32:03.092Z,996.51
2023-04-02T01:32:33.978Z,996.51
2023-04-02T01:33:06.730Z,996.41
2023-04-02T01:33:35.284Z,996.61
2023-04-02T01:33:53.744Z,996.61
2023-04-02T01:34:27.382Z,996.61
2023-04-02T01:34:57.728Z,996.61
2023-04-02T01:35:30.675Z,996.61
2023-04-02T01:36:01.853Z,996.51
2023-04-02T01:36:34.642Z,996.51
2023-04-02T01:37:05.821Z,996.51
2023-04-02T01:37:36.164Z,996.61
2023-04-02T01:37:54.532Z,996.61
2023-04-02T01:38:25.849Z,996.61
2023-04-02T01:38:46.002Z,996.61
2023-04-02T01:39:13.834Z,996.61
2023-04-02T01:39:35.373Z,996.61
2023-04-02T01:40:02.157Z,996.61
2023-04-02T01:40:34.713Z,996.61
2023-04-02T01:41:05.927Z,996.82
2023-04-02T01:41:36.284Z,996.61
2023-04-02T01:41:53.867Z,996.61
2023-04-02T01:42:26.738Z,996.61
2023-04-02T01:42:43.323Z,996.82
2023-04-02T01:43:13.854Z,996.82
2023-04-02T01:43:35.332Z,996.71
2023-04-02T01:44:03.966Z,996.71
2023-04-02T01:44:34.442Z,996.71
2023-04-02T01:45:07.272Z,996.61
2023-04-02T01:45:35.636Z,996.92
2023-04-02T01:45:53.977Z,996.92
2023-04-02T01:46:25.924Z,996.92
2023-04-02T01:46:43.033Z,996.71
2023-04-02T01:47:15.608Z,996.71
2023-04-02T01:47:35.385Z,996.82
2023-04-02T01:48:02.381Z,996.82
2023-04-02T01:48:33.909Z,996.82
2023-04-02T01:49:05.721Z,996.82
2023-04-02T01:49:35.292Z,996.61
2023-04-02T01:49:53.802Z,996.61
2023-04-02T01:50:26.792Z,996.61
2023-04-02T01:50:43.134Z,996.82
2023-04-02T01:51:13.777Z,996.82
2023-04-02T01:51:35.289Z,996.71
2023-04-02T01:52:01.795Z,996.71
2023-04-02T01:52:34.601Z,996.71
2023-04-02T01:53:05.813Z,997.02
2023-04-02T01:53:37.334Z,996.61
2023-04-02T01:53:53.868Z,996.61
2023-04-02T01:54:25.721Z,996.61
2023-04-02T01:54:43.696Z,996.82
2023-04-02T01:55:14.034Z,996.82
2023-04-02T01:55:35.582Z,997.02
2023-04-02T01:56:02.801Z,997.02
2023-04-02T01:56:34.400Z,997.02
2023-04-02T01:57:06.607Z,996.92
2023-04-02T01:57:35.278Z,996.92
2023-04-02T01:57:53.763Z,996.92
2023-04-02T01:58:26.556Z,996.92
2023-04-02T01:58:58.855Z,997.22
2023-04-02T01:59:30.596Z,997.22
2023-04-02T02:00:02.810Z,997.02
2023-04-02T02:00:35.554Z,997.02
2023-04-02T02:01:05.790Z,996.92
2023-04-02T02:01:35.294Z,997.12
2023-04-02T02:01:54.686Z,997.12
2023-04-02T02:02:25.781Z,997.12
2023-04-02T02:02:42.982Z,997.22
2023-04-02T02:03:13.901Z,997.22
2023-04-02T02:03:35.279Z,997.12
2023-04-02T02:04:03.480Z,997.12
2023-04-02T02:04:33.795Z,997.12
2023-04-02T02:05:08.006Z,996.92
2023-04-02T02:05:35.536Z,997.22
2023-04-02T02:05:54.029Z,997.22
2023-04-02T02:06:26.665Z,997.22
2023-04-02T02:06:43.942Z,997.22
2023-04-02T02:07:13.907Z,997.22
2023-04-02T02:07:35.406Z,997.32
2023-04-02T02:08:01.759Z,997.32
2023-04-02T02:08:34.684Z,997.32
2023-04-02T02:09:05.747Z,997.22
2023-04-02T02:09:35.892Z,997.12
2023-04-02T02:09:54.561Z,997.12
2023-04-02T02:10:25.939Z,997.12
2023-04-02T02:10:42.944Z,997.12
2023-04-02T02:11:13.751Z,997.12
2023-04-02T02:11:35.247Z,997.22
2023-04-02T02:12:03.337Z,997.22
2023-04-02T02:12:33.851Z,997.22
2023-04-02T02:13:06.588Z,997.02
2023-04-02T02:13:35.338Z,997.32
2023-04-02T02:13:53.753Z,997.32
2023-04-02T02:14:26.661Z,997.32
2023-04-02T02:14:43.160Z,997.43
2023-04-02T02:15:14.059Z,997.43
2023-04-02T02:15:35.947Z,997.12
2023-04-02T02:16:01.783Z,997.12
2023-04-02T02:16:35.140Z,997.12
2023-04-02T02:17:05.772Z,997.32
2023-04-02T02:17:35.414Z,997.43
2023-04-02T02:17:54.200Z,997.43
2023-04-02T02:18:25.790Z,997.43
2023-04-02T02:18:42.894Z,997.22
2023-04-02T02:19:13.803Z,997.22
2023-04-02T02:19:35.279Z,997.43
2023-04-02T02:20:03.231Z,997.43
2023-04-02T02:20:33.806Z,997.43
2023-04-02T02:21:05.724Z,997.43
2023-04-02T02:21:35.595Z,997.53
2023-04-02T02:21:53.764Z,997.53
2023-04-02T02:22:26.570Z,997.53
2023-04-02T02:22:43.088Z,997.53
2023-04-02T02:23:13.698Z,997.53
2023-04-02T02:23:35.265Z,997.32
2023-04-02T02:24:01.712Z,997.32
2023-04-02T02:24:34.438Z,997.32
2023-04-02T02:25:05.915Z,997.53
2023-04-02T02:25:35.501Z,997.53
2023-04-02T02:25:54.906Z,997.53
2023-04-02T02:26:25.846Z,997.53
2023-04-02T02:26:42.859Z,997.63
2023-04-02T02:27:13.805Z,997.63
2023-04-02T02:27:35.369Z,997.53
2023-04-02T02:28:04.489Z,997.53
2023-04-02T02:28:35.137Z,997.53
2023-04-02T02:29:06.593Z,997.32
2023-04-02T02:29:35.259Z,997.43
2023-04-02T02:29:53.803Z,997.43
2023-04-02T02:30:26.049Z,997.43
2023-04-02T02:30:42.891Z,997.43
2023-04-02T02:31:14.719Z,997.43
2023-04-02T02:31:35.333Z,997.63
2023-04-02T02:32:01.776Z,997.63
2023-04-02T02:32:33.877Z,997.63
2023-04-02T02:33:05.853Z,997.73
2023-04-02T02:33:35.455Z,997.53
2023-04-02T02:33:53.713Z,997.53
2023-04-02T02:34:26.498Z,997.53
2023-04-02T02:34:44.059Z,997.73
2023-04-02T02:35:14.044Z,997.73
2023-04-02T02:35:35.621Z,997.73
2023-04-02T02:36:03.524Z,997.73
2023-04-02T02:36:33.885Z,997.73
2023-04-02T02:37:07.589Z,997.63
2023-04-02T02:37:39.533Z,997.73
2023-04-02T02:38:11.173Z,997.73
2023-04-02T02:38:35.341Z,997.63
2023-04-02T02:38:58.507Z,997.63
2023-04-02T02:39:30.623Z,997.63
2023-04-02T02:40:03.800Z,997.73
2023-04-02T02:40:36.253Z,997.63
2023-04-02T02:41:05.834Z,997.63
2023-04-02T02:41:35.330Z,997.63
2023-04-02T02:41:55.484Z,997.63
2023-04-02T02:42:25.974Z,997.63
2023-04-02T02:42:58.777Z,997.73
2023-04-02T02:43:29.853Z,997.73
2023-04-02T02:44:03.710Z,997.73
2023-04-02T02:44:34.025Z,997.73
2023-04-02T02:45:07.119Z,997.73
2023-04-02T02:45:35.555Z,997.73
2023-04-02T02:45:54.925Z,997.73
2023-04-02T02:46:26.006Z,997.73
2023-04-02T02:46:44.014Z,997.93
2023-04-02T02:47:14.953Z,997.93
2023-04-02T02:47:35.459Z,997.93
2023-04-02T02:48:02.612Z,997.93
2023-04-02T02:48:34.072Z,997.93
2023-04-02T02:49:05.895Z,997.73
2023-04-02T02:49:35.448Z,997.83
2023-04-02T02:49:53.959Z,997.83
2023-04-02T02:50:26.862Z,997.83
2023-04-02T02:50:43.264Z,997.83
2023-04-02T02:51:15.631Z,997.83
2023-04-02T02:51:35.747Z,997.83
2023-04-02T02:52:02.768Z,997.83
2023-04-02T02:52:34.822Z,997.83
2023-04-02T02:53:05.774Z,998.03
2023-04-02T02:53:39.932Z,998.14
2023-04-02T02:54:09.713Z,998.14
2023-04-02T02:54:35.293Z,998.03
2023-04-02T02:54:57.703Z,998.03
2023-04-02T02:55:29.917Z,998.03
2023-04-02T02:56:02.740Z,998.03
2023-04-02T02:56:33.992Z,998.03
2023-04-02T02:57:06.676Z,998.03
2023-04-02T02:57:35.341Z,998.14
2023-04-02T02:57:53.858Z,998.14
2023-04-02T02:58:25.778Z,998.14
2023-04-02T02:58:42.906Z,998.14
2023-04-02T02:59:14.823Z,998.14
2023-04-02T02:59:35.385Z,998.24
2023-04-02T03:00:03.933Z,998.24
2023-04-02T03:00:34.088Z,998.24
2023-04-02T03:01:05.805Z,998.24
2023-04-02T03:01:35.840Z,998.24
2023-04-02T03:01:54.035Z,998.24
2023-04-02T03:02:26.751Z,998.24
2023-04-02T03:02:44.437Z,998.24
2023-04-02T03:03:13.879Z,998.24
2023-04-02T03:03:35.629Z,998.24
2023-04-02T03:04:01.808Z,998.24
2023-04-02T03:04:34.671Z,998.24
2023-04-02T03:05:06.959Z,998.34
2023-04-02T03:05:36.436Z,998.14
2023-04-02T03:05:54.330Z,998.14
2023-04-02T03:06:25.772Z,998.14
2023-04-02T03:06:43.772Z,998.34
2023-04-02T03:07:13.884Z,998.34
2023-04-02T03:07:35.828Z,998.44
2023-04-02T03:08:01.678Z,998.44
2023-04-02T03:08:33.956Z,998.44
2023-04-02T03:09:07.336Z,998.34
2023-04-02T03:09:35.339Z,998.34
2023-04-02T03:09:54.493Z,998.34
2023-04-02T03:10:26.203Z,998.34
2023-04-02T03:10:42.895Z,998.51
2023-04-02T03:11:14.814Z,998.51
2023-04-02T03:11:35.286Z,998.34
2023-04-02T03:12:01.681Z,998.34
2023-04-02T03:12:34.104Z,998.34
2023-04-02T03:13:05.748Z,998.34
2023-04-02T03:13:35.381Z,998.24
2023-04-02T03:13:53.886Z,998.24
2023-04-02T03:14:26.712Z,998.24
2023-04-02T03:14:43.260Z,998.44
2023-04-02T03:15:14.221Z,998.44
2023-04-02T03:15:35.597Z,998.24
2023-04-02T03:16:01.742Z,998.24
2023-04-02T03:16:34.753Z,998.24
2023-04-02T03:17:05.748Z,998.71
2023-04-02T03:17:36.151Z,998.51
2023-04-02T03:17:54.284Z,998.51
2023-04-02T03:18:25.751Z,998.51
2023-04-02T03:18:44.687Z,998.61
2023-04-02T03:19:14.095Z,998.61
2023-04-02T03:19:35.604Z,998.44
2023-04-02T03:20:01.968Z,998.44
2023-04-02T03:20:33.920Z,998.44
2023-04-02T03:21:06.883Z,998.51
2023-04-02T03:21:35.684Z,998.61
2023-04-02T03:21:53.759Z,998.61
2023-04-02T03:22:26.502Z,998.61
2023-04-02T03:22:58.777Z,998.44
2023-04-02T03:23:30.558Z,998.44
2023-04-02T03:24:01.699Z,998.51
2023-04-02T03:24:34.132Z,998.51
2023-04-02T03:25:06.480Z,998.61
2023-04-02T03:25:35.553Z,998.81
2023-04-02T03:25:55.894Z,998.81
2023-04-02T03:26:25.830Z,998.81
2023-04-02T03:26:42.981Z,998.51
2023-04-02T03:27:13.807Z,998.51
2023-04-02T03:27:35.348Z,998.61
2023-04-02T03:28:02.556Z,998.61
2023-04-02T03:28:34.842Z,998.61
2023-04-02T03:29:22.753Z,998.61
2023-04-02T03:29:39.736Z,998.61
2023-04-02T03:30:09.941Z,998.61
2023-04-02T03:30:35.282Z,998.51
2023-04-02T03:30:57.873Z,998.51
2023-04-02T03:31:30.646Z,998.51
2023-04-02T03:32:01.711Z,998.81
2023-04-02T03:32:35.291Z,998.81
2023-04-02T03:33:05.805Z,998.71
2023-04-02T03:33:35.595Z,998.71
2023-04-02T03:33:53.767Z,998.71
2023-04-02T03:34:25.768Z,998.71
2023-04-02T03:34:42.803Z,998.81
2023-04-02T03:35:14.076Z,998.81
2023-04-02T03:35:35.463Z,998.61
2023-04-02T03:36:03.085Z,998.61
2023-04-02T03:36:35.729Z,998.81
2023-04-02T03:37:06.778Z,998.81
2023-04-02T03:37:35.282Z,998.92
2023-04-02T03:37:53.890Z,998.92
2023-04-02T03:38:25.753Z,998.92
2023-04-02T03:38:42.875Z,998.92
2023-04-02T03:39:15.098Z,998.92
2023-04-02T03:39:35.303Z,998.71
2023-04-02T03:40:01.930Z,998.71
2023-04-02T03:40:35.420Z,998.71
2023-04-02T03:41:05.735Z,998.92
2023-04-02T03:41:35.292Z,998.71
2023-04-02T03:41:54.119Z,998.71
2023-04-02T03:42:25.747Z,998.71
2023-04-02T03:42:43.227Z,998.71
2023-04-02T03:43:13.778Z,998.71
2023-04-02T03:43:35.738Z,998.81
2023-04-02T03:44:03.192Z,998.81
2023-04-02T03:44:33.980Z,998.81
2023-04-02T03:45:06.723Z,998.92
2023-04-02T03:45:35.901Z,999.12
2023-04-02T03:45:54.255Z,999.12
2023-04-02T03:46:25.840Z,999.12
2023-04-02T03:46:42.891Z,999.12
2023-04-02T03:47:14.803Z,999.12
2023-04-02T03:47:36.108Z,999.12
2023-04-02T03:48:01.975Z,999.12
2023-04-02T03:48:34.008Z,999.12
2023-04-02T03:49:05.727Z,998.92
2023-04-02T03:49:35.289Z,999.22
2023-04-02T03:49:54.014Z,999.22
2023-04-02T03:50:26.881Z,999.22
2023-04-02T03:50:43.280Z,999.22
2023-04-02T03:51:13.899Z,999.22
2023-04-02T03:51:35.310Z,999.22
2023-04-02T03:52:02.547Z,999.22
2023-04-02T03:52:34.325Z,999.22
2023-04-02T03:53:06.565Z,999.32
2023-04-02T03:53:35.350Z,999.02
2023-04-02T03:53:53.843Z,999.02
2023-04-02T03:54:25.733Z,999.02
2023-04-02T03:54:53.943Z,999.22
2023-04-02T03:55:15.005Z,999.22
2023-04-02T03:55:35.679Z,999.22
2023-04-02T03:56:02.924Z,999.22
2023-04-02T03:56:34.550Z,999.22
2023-04-02T03:57:05.763Z,999.32
2023-04-02T03:57:35.294Z,999.63
2023-04-02T03:57:53.788Z,999.63
2023-04-02T03:58:26.588Z,999.63
2023-04-02T03:58:43.467Z,999.52
2023-04-02T03:59:14.405Z,999.52
2023-04-02T03:59:35.647Z,999.22
2023-04-02T04:00:02.331Z,999.22
2023-04-02T04:00:34.846Z,999.22
2023-04-02T04:01:05.807Z,999.42
2023-04-02T04:01:36.112Z,999.42
2023-04-02T04:01:55.360Z,999.42
2023-04-02T04:02:25.845Z,999.42
2023-04-02T04:02:42.978Z,999.52
2023-04-02T04:03:13.906Z,999.52
2023-04-02T04:03:35.288Z,999.42
2023-04-02T04:04:03.961Z,999.42
2023-04-02T04:04:34.206Z,999.42
2023-04-02T04:05:06.985Z,999.52
2023-04-02T04:05:35.616Z,999.42
2023-04-02T04:05:54.046Z,999.42
2023-04-02T04:06:25.800Z,999.42
2023-04-02T04:06:43.109Z,999.73
2023-04-02T04:07:14.803Z,999.73
2023-04-02T04:07:35.318Z,999.63
2023-04-02T04:08:01.774Z,999.63
2023-04-02T04:08:33.988Z,999.63
2023-04-02T04:09:05.765Z,999.73
2023-04-02T04:09:35.379Z,999.63
2023-04-02T04:09:53.903Z,999.63
2023-04-02T04:10:30.684Z,999.63
2023-04-02T04:10:57.720Z,999.52
2023-04-02T04:11:29.877Z,999.52
2023-04-02T04:12:01.744Z,999.52
2023-04-02T04:12:34.097Z,999.52
2023-04-02T04:13:05.776Z,999.52
2023-04-02T04:13:35.506Z,999.73
2023-04-02T04:13:54.556Z,999.73
2023-04-02T04:14:25.716Z,999.73
2023-04-02T04:14:44.064Z,999.52
2023-04-02T04:15:14.094Z,999.52
2023-04-02T04:15:35.460Z,999.83
2023-04-02T04:16:02.858Z,999.83
2023-04-02T04:16:34.188Z,999.83
2023-04-02T04:17:06.820Z,999.73
2023-04-02T04:17:35.407Z,999.73
2023-04-02T04:17:53.985Z,999.73
2023-04-02T04:18:25.826Z,999.73
2023-04-02T04:18:42.864Z,999.63
2023-04-02T04:19:14.911Z,999.63
2023-04-02T04:19:35.840Z,999.52
2023-04-02T04:20:02.075Z,999.52
2023-04-02T04:20:34.029Z,999.52
2023-04-02T04:21:05.802Z,999.83
2023-04-02T04:21:35.316Z,999.73
2023-04-02T04:21:53.840Z,999.73
2023-04-02T04:22:26.691Z,999.73
2023-04-02T04:22:43.111Z,999.93
2023-04-02T04:23:13.778Z,999.93
2023-04-02T04:23:35.324Z,999.83
2023-04-02T04:24:01.799Z,999.83
2023-04-02T04:24:35.110Z,999.83
2023-04-02T04:25:05.965Z,1000.03
2023-04-02T04:25:35.615Z,1000.03
2023-04-02T04:25:54.841Z,1000.03
2023-04-02T04:26:25.723Z,1000.03
2023-04-02T04:26:42.875Z,1000.03
2023-04-02T04:27:15.086Z,1000.03
2023-04-02T04:27:35.443Z,999.83
2023-04-02T04:28:02.852Z,999.83
2023-04-02T04:28:34.630Z,999.83
2023-04-02T04:29:06.537Z,999.93
2023-04-02T04:29:35.395Z,1000.13
2023-04-02T04:29:53.910Z,1000.13
2023-04-02T04:30:26.029Z,1000.13
2023-04-02T04:30:42.867Z,1000.13
2023-04-02T04:31:15.331Z,1000.13
2023-04-02T04:31:35.436Z,999.93
2023-04-02T04:32:01.812Z,999.93
2023-04-02T04:32:34.219Z,999.93
2023-04-02T04:33:06.002Z,999.93
2023-04-02T04:33:35.535Z,1000.03
2023-04-02T04:33:53.853Z,1000.03
2023-04-02T04:34:27.456Z,1000.03
2023-04-02T04:34:57.722Z,999.93
2023-04-02T04:35:30.822Z,999.93
2023-04-02T04:36:01.850Z,1000.34
2023-04-02T04:36:34.718Z,1000.34
2023-04-02T04:37:05.896Z,999.93
2023-04-02T04:37:35.422Z,1000.24
2023-04-02T04:37:54.565Z,1000.24
2023-04-02T04:38:25.968Z,1000.24
2023-04-02T04:38:42.820Z,1000.03
2023-04-02T04:39:30.636Z,1000.03
2023-04-02T04:40:02.079Z,1000.13
2023-04-02T04:40:34.989Z,1000.13
2023-04-02T04:41:05.831Z,1000.13
2023-04-02T04:41:36.282Z,1000.13
2023-04-02T04:41:54.113Z,1000.13
2023-04-02T04:42:26.095Z,1000.13
2023-04-02T04:42:42.840Z,1000.13
2023-04-02T04:43:13.731Z,1000.13
2023-04-02T04:43:35.909Z,1000.13
2023-04-02T04:44:03.182Z,1000.13
2023-04-02T04:44:33.839Z,1000.13
2023-04-02T04:45:07.003Z,1000.13
2023-04-02T04:45:35.610Z,1000.03
2023-04-02T04:45:53.870Z,1000.03
2023-04-02T04:46:26.066Z,1000.03
2023-04-02T04:46:42.856Z,1000.24
2023-04-02T04:47:15.224Z,1000.24
2023-04-02T04:47:35.637Z,1000.34
2023-04-02T04:48:02.445Z,1000.34
2023-04-02T04:48:36.389Z,1000.34
2023-04-02T04:49:05.908Z,1000.13
2023-04-02T04:49:36.249Z,1000.34
2023-04-02T04:49:54.229Z,1000.34
2023-04-02T04:50:26.058Z,1000.34
2023-04-02T04:50:44.005Z,1000.34
2023-04-02T04:51:13.750Z,1000.34
2023-04-02T04:51:35.468Z,1000.34
2023-04-02T04:52:02.555Z,1000.34
2023-04-02T04:52:34.312Z,1000.34
2023-04-02T04:53:06.884Z,1000.54
2023-04-02T04:53:35.859Z,1000.61
2023-04-02T04:53:53.778Z,1000.61
2023-04-02T04:54:25.928Z,1000.61
2023-04-02T04:54:43.073Z,1000.44
2023-04-02T04:55:15.951Z,1000.44
2023-04-02T04:55:35.765Z,1000.54
2023-04-02T04:56:12.485Z,1000.54
2023-04-02T04:56:33.813Z,1000.54
2023-04-02T04:57:06.027Z,1000.54
2023-04-02T04:57:35.446Z,1000.44
2023-04-02T04:57:53.710Z,1000.44
2023-04-02T04:58:26.589Z,1000.44
2023-04-02T04:58:58.785Z,1000.54
2023-04-02T04:59:30.521Z,1000.54
2023-04-02T05:00:02.826Z,1000.54
2023-04-02T05:00:34.914Z,1000.54
2023-04-02T05:01:05.936Z,1000.54
2023-04-02T05:01:35.591Z,1000.71
2023-04-02T05:01:54.742Z,1000.71
2023-04-02T05:02:25.924Z,1000.71
2023-04-02T05:02:42.871Z,1000.71
2023-04-02T05:03:13.721Z,1000.71
2023-04-02T05:03:35.956Z,1000.61
2023-04-02T05:04:02.565Z,1000.61
2023-04-02T05:04:34.607Z,1000.61
2023-04-02T05:05:07.081Z,1000.81
2023-04-02T05:05:35.688Z,1000.71
2023-04-02T05:05:54.443Z,1000.71
2023-04-02T05:06:25.908Z,1000.71
2023-04-02T05:06:42.890Z,1000.71
2023-04-02T05:07:13.705Z,1000.71
2023-04-02T05:07:35.512Z,1000.81
2023-04-02T05:08:01.757Z,1000.81
2023-04-02T05:08:35.264Z,1000.81
2023-04-02T05:09:05.983Z,1000.91
2023-04-02T05:09:35.493Z,1000.54
2023-04-02T05:09:54.704Z,1000.54
2023-04-02T05:10:26.041Z,1000.54
2023-04-02T05:10:43.731Z,1001.01
2023-04-02T05:11:14.990Z,1001.01
2023-04-02T05:11:35.642Z,1000.81
2023-04-02T05:12:01.808Z,1000.81
2023-04-02T05:12:33.785Z,1000.81
2023-04-02T05:13:05.932Z,1000.91
2023-04-02T05:13:35.516Z,1000.91
2023-04-02T05:13:53.689Z,1000.91
2023-04-02T05:14:26.622Z,1000.91
2023-04-02T05:14:58.848Z,1001.01
2023-04-02T05:15:30.143Z,1001.01
2023-04-02T05:16:01.756Z,1001.12
2023-04-02T05:16:33.963Z,1001.12
2023-04-02T05:17:05.912Z,1001.12
2023-04-02T05:17:36.108Z,1001.12
2023-04-02T05:17:53.762Z,1001.12
2023-04-02T05:18:26.628Z,1001.12
2023-04-02T05:18:58.908Z,1001.01
2023-04-02T05:19:30.894Z,1001.01
2023-04-02T05:20:02.614Z,1001.01
2023-04-02T05:20:35.042Z,1001.01
2023-04-02T05:21:05.889Z,1001.12
2023-04-02T05:21:35.417Z,1001.01
2023-04-02T05:21:54.607Z,1001.01
2023-04-02T05:22:26.133Z,1001.01
2023-04-02T05:22:42.967Z,1001.01
2023-04-02T05:23:14.820Z,1001.01
2023-04-02T05:23:35.408Z,1001.01
2023-04-02T05:24:01.770Z,1001.01
2023-04-02T05:24:33.840Z,1001.01
2023-04-02T05:25:06.073Z,1001.22
2023-04-02T05:25:35.688Z,1001.42
2023-04-02T05:25:53.957Z,1001.42
2023-04-02T05:26:26.709Z,1001.42
2023-04-02T05:26:43.149Z,1001.22
2023-04-02T05:27:13.715Z,1001.22
2023-04-02T05:27:35.508Z,1001.22
2023-04-02T05:28:01.804Z,1001.22
2023-04-02T05:28:35.559Z,1001.22
2023-04-02T05:29:05.830Z,1001.12
2023-04-02T05:29:35.540Z,1001.32
2023-04-02T05:29:54.543Z,1001.32
2023-04-02T05:30:26.172Z,1001.32
2023-04-02T05:30:42.906Z,1001.12
2023-04-02T05:31:13.817Z,1001.12
2023-04-02T05:31:36.332Z,1001.32
2023-04-02T05:32:02.724Z,1001.32
2023-04-02T05:32:33.836Z,1001.32
2023-04-02T05:33:05.925Z,1001.52
2023-04-02T05:33:35.736Z,1001.32
2023-04-02T05:33:53.734Z,1001.32
2023-04-02T05:34:26.568Z,1001.32
2023-04-02T05:34:43.357Z,1001.32
2023-04-02T05:35:13.951Z,1001.32
2023-04-02T05:35:35.896Z,1001.32
2023-04-02T05:36:01.797Z,1001.32
2023-04-02T05:36:35.604Z,1001.32
2023-04-02T05:37:07.219Z,1001.42
2023-04-02T05:37:35.579Z,1001.52
2023-04-02T05:37:54.840Z,1001.52
2023-04-02T05:38:25.936Z,1001.52
2023-04-02T05:38:42.864Z,1001.52